PWSweather.com
Personal Weather Stations
Station Observations

ChardChardGB

Lat: 50.877408, Lon: -2.94964741

Elevation: 341

Station Type: WS3083

http://www.merriott-astro.co.uk/weather/index.htm

High Low Average
Temperature 48.4°F9.1°C 32.2°F0.1°C 39.2°F4.0°C
Dew Point 32.1°F0.1°C 20.7°F-6.3°C 27.3°F-2.6°C
Winds 13.1 mph 21.1 kmh Calm Calm 6.0 mph E9.7 kmh E
Wind Gusts 16.8 mph27.0 kmh -- 9.0 mph14.5 kmh
Humidity 74% 47% 62%
Pressure 30.11 in1019.6 mb 29.78 in1008.5 mb -
Precipitation 0.09 in2.3 mm - -
Hour Temp Dew Point Humidity Winds Wind Gusts Pressure Precip Precip Rate Daily Precip Total
12:00 AM 33.6°F0.9°C 22.0°F-5.6°C 62% 8.9 mph ENE14.3 kmh ENE 13.0 mph20.9 kmh 29.86 in1011.2 mb 0.00 in0.0 mm 0.00 in0.0 mm 0.00 in0.0 mm
12:10 AM 33.6°F0.9°C 22.0°F-5.6°C 62% 8.2 mph NE13.2 kmh NE 12.1 mph19.5 kmh 29.86 in1011.2 mb 0.00 in0.0 mm 0.00 in0.0 mm 0.00 in0.0 mm
12:20 AM 33.4°F0.8°C 21.8°F-5.7°C 62% 6.9 mph ENE11.1 kmh ENE 9.2 mph14.8 kmh 29.87 in1011.5 mb 0.00 in0.0 mm 0.00 in0.0 mm 0.00 in0.0 mm
12:30 AM 33.1°F0.6°C 21.5°F-5.8°C 62% 4.9 mph ENE7.9 kmh ENE 6.0 mph9.7 kmh 29.87 in1011.5 mb 0.00 in0.0 mm 0.00 in0.0 mm 0.00 in0.0 mm
12:40 AM 32.9°F0.5°C 21.3°F-5.9°C 62% 6.2 mph NE10.0 kmh NE 8.3 mph13.4 kmh 29.87 in1011.5 mb 0.00 in0.0 mm 0.00 in0.0 mm 0.00 in0.0 mm
12:50 AM 32.9°F0.5°C 21.3°F-5.9°C 62% 7.0 mph NE11.3 kmh NE 8.3 mph13.4 kmh 29.87 in1011.5 mb 0.00 in0.0 mm 0.00 in0.0 mm 0.00 in0.0 mm
01:00 AM 32.5°F0.3°C 21.0°F-6.1°C 62% 5.3 mph E8.5 kmh E 7.6 mph12.2 kmh 29.88 in1011.9 mb 0.00 in0.0 mm 0.00 in0.0 mm 0.00 in0.0 mm
01:10 AM 32.2°F0.1°C 20.7°F-6.3°C 62% 4.4 mph NE7.1 kmh NE 6.0 mph9.7 kmh 29.89 in1012.2 mb 0.00 in0.0 mm 0.00 in0.0 mm 0.00 in0.0 mm
01:20 AM 32.5°F0.3°C 21.4°F-5.9°C 63% 5.6 mph NE9.0 kmh NE 9.2 mph14.8 kmh 29.89 in1012.2 mb 0.00 in0.0 mm 0.00 in0.0 mm 0.00 in0.0 mm
01:30 AM 32.9°F0.5°C 21.3°F-5.9°C 62% 7.1 mph E11.4 kmh E 9.8 mph15.8 kmh 29.89 in1012.2 mb 0.00 in0.0 mm 0.00 in0.0 mm 0.00 in0.0 mm
01:40 AM 33.1°F0.6°C 21.5°F-5.8°C 62% 8.1 mph ENE13.0 kmh ENE 11.4 mph18.3 kmh 29.89 in1012.2 mb 0.00 in0.0 mm 0.00 in0.0 mm 0.00 in0.0 mm
01:50 AM 33.1°F0.6°C 21.5°F-5.8°C 62% 6.6 mph ENE10.6 kmh ENE 9.8 mph15.8 kmh 29.89 in1012.2 mb 0.00 in0.0 mm 0.00 in0.0 mm 0.00 in0.0 mm
02:00 AM 32.9°F0.5°C 21.3°F-5.9°C 62% 6.0 mph E9.7 kmh E 7.6 mph12.2 kmh 29.89 in1012.2 mb 0.00 in0.0 mm 0.00 in0.0 mm 0.00 in0.0 mm
02:10 AM 33.1°F0.6°C 21.5°F-5.8°C 62% 5.9 mph NE9.5 kmh NE 8.3 mph13.4 kmh 29.90 in1012.5 mb 0.00 in0.0 mm 0.00 in0.0 mm 0.00 in0.0 mm
02:20 AM 33.3°F0.7°C 21.7°F-5.7°C 62% 6.2 mph NE10.0 kmh NE 7.6 mph12.2 kmh 29.90 in1012.5 mb 0.00 in0.0 mm 0.00 in0.0 mm 0.00 in0.0 mm
02:30 AM 33.1°F0.6°C 21.1°F-6.1°C 61% 5.6 mph NE9.0 kmh NE 8.3 mph13.4 kmh 29.90 in1012.5 mb 0.00 in0.0 mm 0.00 in0.0 mm 0.00 in0.0 mm
02:40 AM 32.7°F0.4°C 21.2°F-6.0°C 62% 5.6 mph NE9.0 kmh NE 7.6 mph12.2 kmh 29.91 in1012.9 mb 0.00 in0.0 mm 0.00 in0.0 mm 0.00 in0.0 mm
02:50 AM 32.7°F0.4°C 21.2°F-6.0°C 62% 4.9 mph NE7.9 kmh NE 6.0 mph9.7 kmh 29.90 in1012.5 mb 0.00 in0.0 mm 0.00 in0.0 mm 0.00 in0.0 mm
03:00 AM 32.9°F0.5°C 21.3°F-5.9°C 62% 5.8 mph NE9.3 kmh NE 7.6 mph12.2 kmh 29.90 in1012.5 mb 0.00 in0.0 mm 0.00 in0.0 mm 0.00 in0.0 mm
03:10 AM 32.9°F0.5°C 21.3°F-5.9°C 62% 5.5 mph NE8.9 kmh NE 7.6 mph12.2 kmh 29.91 in1012.9 mb 0.00 in0.0 mm 0.00 in0.0 mm 0.00 in0.0 mm
03:20 AM 33.1°F0.6°C 21.5°F-5.8°C 62% 4.2 mph ENE6.8 kmh ENE 5.4 mph8.7 kmh 29.90 in1012.5 mb 0.00 in0.0 mm 0.00 in0.0 mm 0.00 in0.0 mm
03:30 AM 32.9°F0.5°C 21.3°F-5.9°C 62% 4.4 mph NE7.1 kmh NE 5.4 mph8.7 kmh 29.90 in1012.5 mb 0.00 in0.0 mm 0.00 in0.0 mm 0.00 in0.0 mm
03:40 AM 32.5°F0.3°C 21.0°F-6.1°C 62% 3.6 mph ENE5.8 kmh ENE 4.5 mph7.2 kmh 29.91 in1012.9 mb 0.00 in0.0 mm 0.00 in0.0 mm 0.00 in0.0 mm
03:50 AM 32.5°F0.3°C 21.0°F-6.1°C 62% 5.4 mph ENE8.7 kmh ENE 6.9 mph11.1 kmh 29.91 in1012.9 mb 0.00 in0.0 mm 0.00 in0.0 mm 0.00 in0.0 mm
04:00 AM 32.5°F0.3°C 21.4°F-5.9°C 63% 6.4 mph E10.3 kmh E 9.2 mph14.8 kmh 29.92 in1013.2 mb 0.00 in0.0 mm 0.00 in0.0 mm 0.00 in0.0 mm
04:10 AM 33.1°F0.6°C 21.9°F-5.6°C 63% 7.8 mph E12.6 kmh E 9.8 mph15.8 kmh 29.91 in1012.9 mb 0.00 in0.0 mm 0.00 in0.0 mm 0.00 in0.0 mm
04:20 AM 33.4°F0.8°C 22.2°F-5.4°C 63% 7.5 mph ENE12.1 kmh ENE 9.2 mph14.8 kmh 29.92 in1013.2 mb 0.00 in0.0 mm 0.00 in0.0 mm 0.00 in0.0 mm
04:30 AM 33.4°F0.8°C 22.2°F-5.4°C 63% 7.0 mph NE11.3 kmh NE 9.2 mph14.8 kmh 29.92 in1013.2 mb 0.00 in0.0 mm 0.00 in0.0 mm 0.00 in0.0 mm
04:40 AM 33.3°F0.7°C 22.1°F-5.5°C 63% 6.2 mph E10.0 kmh E 9.8 mph15.8 kmh 29.92 in1013.2 mb 0.00 in0.0 mm 0.00 in0.0 mm 0.00 in0.0 mm
04:50 AM 33.3°F0.7°C 22.1°F-5.5°C 63% 5.6 mph NE9.0 kmh NE 8.3 mph13.4 kmh 29.92 in1013.2 mb 0.00 in0.0 mm 0.00 in0.0 mm 0.00 in0.0 mm
05:00 AM 33.1°F0.6°C 21.9°F-5.6°C 63% 5.1 mph NE8.2 kmh NE 7.6 mph12.2 kmh 29.93 in1013.5 mb 0.00 in0.0 mm 0.00 in0.0 mm 0.00 in0.0 mm
05:10 AM 32.7°F0.4°C 21.5°F-5.8°C 63% 4.2 mph E6.8 kmh E 5.4 mph8.7 kmh 29.93 in1013.5 mb 0.00 in0.0 mm 0.00 in0.0 mm 0.00 in0.0 mm
05:20 AM 32.7°F0.4°C 21.9°F-5.6°C 64% 4.9 mph ENE7.9 kmh ENE 6.0 mph9.7 kmh 29.95 in1014.2 mb 0.00 in0.0 mm 0.00 in0.0 mm 0.00 in0.0 mm
05:30 AM 32.9°F0.5°C 22.5°F-5.3°C 65% 4.3 mph NE6.9 kmh NE 5.4 mph8.7 kmh 29.95 in1014.2 mb 0.00 in0.0 mm 0.00 in0.0 mm 0.00 in0.0 mm
05:40 AM 32.9°F0.5°C 22.5°F-5.3°C 65% 3.8 mph NE6.1 kmh NE 6.0 mph9.7 kmh 29.96 in1014.6 mb 0.00 in0.0 mm 0.00 in0.0 mm 0.00 in0.0 mm
05:50 AM 32.9°F0.5°C 22.5°F-5.3°C 65% 4.0 mph NE6.4 kmh NE 5.4 mph8.7 kmh 29.96 in1014.6 mb 0.00 in0.0 mm 0.00 in0.0 mm 0.00 in0.0 mm
06:00 AM 33.3°F0.7°C 23.2°F-4.9°C 66% 3.7 mph NE6.0 kmh NE 4.5 mph7.2 kmh 29.97 in1014.9 mb 0.00 in0.0 mm 0.00 in0.0 mm 0.00 in0.0 mm
06:10 AM 33.6°F0.9°C 23.9°F-4.5°C 67% 4.1 mph ENE6.6 kmh ENE 5.4 mph8.7 kmh 29.97 in1014.9 mb 0.00 in0.0 mm 0.00 in0.0 mm 0.00 in0.0 mm
06:20 AM 34.2°F1.2°C 24.7°F-4.1°C 68% 5.1 mph NE8.2 kmh NE 6.9 mph11.1 kmh 29.97 in1014.9 mb 0.00 in0.0 mm 0.00 in0.0 mm 0.00 in0.0 mm
06:30 AM 34.5°F1.4°C 25.8°F-3.4°C 70% 6.4 mph NE10.3 kmh NE 8.3 mph13.4 kmh 29.98 in1015.2 mb 0.00 in0.0 mm 0.00 in0.0 mm 0.00 in0.0 mm
06:40 AM 34.5°F1.4°C 26.4°F-3.1°C 72% 6.3 mph NE10.1 kmh NE 9.8 mph15.8 kmh 29.99 in1015.6 mb 0.00 in0.0 mm 0.00 in0.0 mm 0.00 in0.0 mm
06:50 AM 34.5°F1.4°C 26.8°F-2.9°C 73% 4.3 mph NE6.9 kmh NE 5.4 mph8.7 kmh 29.99 in1015.6 mb 0.00 in0.0 mm 0.00 in0.0 mm 0.00 in0.0 mm
07:00 AM 35.1°F1.7°C 27.6°F-2.4°C 74% 7.2 mph E11.6 kmh E 13.6 mph21.9 kmh 29.99 in1015.6 mb 0.00 in0.0 mm 0.00 in0.0 mm 0.00 in0.0 mm
07:10 AM 35.6°F2.0°C 28.1°F-2.2°C 74% 7.7 mph N12.4 kmh N 10.7 mph17.2 kmh 30.00 in1015.9 mb 0.00 in0.0 mm 0.00 in0.0 mm 0.00 in0.0 mm
07:20 AM 36.0°F2.2°C 28.2°F-2.1°C 73% 7.0 mph N11.3 kmh N 11.4 mph18.3 kmh 30.00 in1015.9 mb 0.00 in0.0 mm 0.00 in0.0 mm 0.00 in0.0 mm
07:30 AM 36.1°F2.3°C 28.3°F-2.1°C 73% 6.0 mph N9.7 kmh N 8.3 mph13.4 kmh 30.00 in1015.9 mb 0.00 in0.0 mm 0.00 in0.0 mm 0.00 in0.0 mm
07:40 AM 36.3°F2.4°C 28.5°F-1.9°C 73% 5.8 mph NE9.3 kmh NE 9.8 mph15.8 kmh 30.00 in1015.9 mb 0.00 in0.0 mm 0.00 in0.0 mm 0.00 in0.0 mm
07:50 AM 36.9°F2.7°C 28.7°F-1.8°C 72% 5.6 mph N9.0 kmh N 9.8 mph15.8 kmh 30.01 in1016.3 mb 0.00 in0.0 mm 0.00 in0.0 mm 0.00 in0.0 mm
08:00 AM 37.2°F2.9°C 28.7°F-1.8°C 71% 6.4 mph N10.3 kmh N 9.8 mph15.8 kmh 30.01 in1016.3 mb 0.00 in0.0 mm 0.00 in0.0 mm 0.00 in0.0 mm
08:10 AM 37.6°F3.1°C 29.0°F-1.7°C 71% 6.0 mph N9.7 kmh N 11.4 mph18.3 kmh 30.01 in1016.3 mb 0.00 in0.0 mm 0.00 in0.0 mm 0.00 in0.0 mm
08:20 AM 38.7°F3.7°C 29.4°F-1.4°C 69% 5.9 mph NNE9.5 kmh NNE 9.2 mph14.8 kmh 30.02 in1016.6 mb 0.00 in0.0 mm 0.00 in0.0 mm 0.00 in0.0 mm
08:30 AM 39.9°F4.4°C 29.5°F-1.4°C 66% 5.9 mph NW9.5 kmh NW 9.2 mph14.8 kmh 30.02 in1016.6 mb 0.00 in0.0 mm 0.00 in0.0 mm 0.00 in0.0 mm
08:40 AM 39.7°F4.3°C 29.0°F-1.7°C 65% 5.6 mph NNW9.0 kmh NNW 8.3 mph13.4 kmh 30.02 in1016.6 mb 0.00 in0.0 mm 0.00 in0.0 mm 0.00 in0.0 mm
08:50 AM 40.8°F4.9°C 29.6°F-1.3°C 64% 5.5 mph NW8.9 kmh NW 8.3 mph13.4 kmh 30.03 in1016.9 mb 0.00 in0.0 mm 0.00 in0.0 mm 0.00 in0.0 mm
09:00 AM 40.8°F4.9°C 29.6°F-1.3°C 64% 5.5 mph NNE8.9 kmh NNE 8.3 mph13.4 kmh 30.02 in1016.6 mb 0.00 in0.0 mm 0.00 in0.0 mm 0.00 in0.0 mm
09:10 AM 41.7°F5.4°C 30.5°F-0.8°C 64% 9.5 mph NNW15.3 kmh NNW 11.4 mph18.3 kmh 30.03 in1016.9 mb 0.00 in0.0 mm 0.00 in0.0 mm 0.00 in0.0 mm
09:20 AM 42.1°F5.6°C 29.6°F-1.3°C 61% 8.0 mph NE12.9 kmh NE 11.4 mph18.3 kmh 30.03 in1016.9 mb 0.00 in0.0 mm 0.00 in0.0 mm 0.00 in0.0 mm
09:30 AM 40.8°F4.9°C 28.8°F-1.8°C 62% 9.8 mph NNE15.8 kmh NNE 15.2 mph24.5 kmh 30.03 in1016.9 mb 0.00 in0.0 mm 0.00 in0.0 mm 0.00 in0.0 mm
09:40 AM 40.8°F4.9°C 29.2°F-1.6°C 63% 8.6 mph N13.8 kmh N 12.1 mph19.5 kmh 30.03 in1016.9 mb 0.00 in0.0 mm 0.00 in0.0 mm 0.00 in0.0 mm
09:50 AM 41.4°F5.2°C 29.7°F-1.3°C 63% 9.9 mph N15.9 kmh N 13.6 mph21.9 kmh 30.04 in1017.3 mb 0.00 in0.0 mm 0.00 in0.0 mm 0.00 in0.0 mm
10:00 AM 41.5°F5.3°C 29.9°F-1.2°C 63% 8.9 mph NNE14.3 kmh NNE 13.6 mph21.9 kmh 30.04 in1017.3 mb 0.00 in0.0 mm 0.00 in0.0 mm 0.00 in0.0 mm
10:10 AM 41.0°F5.0°C 29.4°F-1.4°C 63% 10.0 mph N16.1 kmh N 14.5 mph23.3 kmh 30.03 in1016.9 mb 0.00 in0.0 mm 0.00 in0.0 mm 0.00 in0.0 mm
10:20 AM 43.3°F6.3°C 31.6°F-0.2°C 63% 7.4 mph NNW11.9 kmh NNW 11.4 mph18.3 kmh 30.04 in1017.3 mb 0.00 in0.0 mm 0.00 in0.0 mm 0.00 in0.0 mm
10:30 AM 44.1°F6.7°C 31.5°F-0.3°C 61% 9.0 mph NNW14.5 kmh NNW 11.4 mph18.3 kmh 30.04 in1017.3 mb 0.00 in0.0 mm 0.00 in0.0 mm 0.00 in0.0 mm
10:40 AM 43.5°F6.4°C 31.0°F-0.6°C 61% 8.2 mph NNW13.2 kmh NNW 10.7 mph17.2 kmh 30.04 in1017.3 mb 0.00 in0.0 mm 0.00 in0.0 mm 0.00 in0.0 mm
10:50 AM 42.3°F5.7°C 29.8°F-1.2°C 61% 9.6 mph NW15.4 kmh NW 12.1 mph19.5 kmh 30.04 in1017.3 mb 0.00 in0.0 mm 0.00 in0.0 mm 0.00 in0.0 mm
11:00 AM 41.9°F5.5°C 30.2°F-1.0°C 63% 8.9 mph N14.3 kmh N 14.5 mph23.3 kmh 30.04 in1017.3 mb 0.00 in0.0 mm 0.00 in0.0 mm 0.00 in0.0 mm
11:10 AM 42.1°F5.6°C 30.4°F-0.9°C 63% 9.9 mph NNW15.9 kmh NNW 13.6 mph21.9 kmh 30.04 in1017.3 mb 0.00 in0.0 mm 0.00 in0.0 mm 0.00 in0.0 mm
11:20 AM 42.4°F5.8°C 30.7°F-0.7°C 63% 8.1 mph N13.0 kmh N 10.7 mph17.2 kmh 30.05 in1017.6 mb 0.00 in0.0 mm 0.00 in0.0 mm 0.00 in0.0 mm
11:30 AM 43.0°F6.1°C 31.3°F-0.4°C 63% 8.8 mph NNW14.2 kmh NNW 12.1 mph19.5 kmh 30.04 in1017.3 mb 0.00 in0.0 mm 0.00 in0.0 mm 0.00 in0.0 mm
11:40 AM 43.3°F6.3°C 31.2°F-0.4°C 62% 9.3 mph N15.0 kmh N 13.6 mph21.9 kmh 30.04 in1017.3 mb 0.00 in0.0 mm 0.00 in0.0 mm 0.00 in0.0 mm
11:50 AM 43.9°F6.6°C 31.3°F-0.4°C 61% 8.9 mph NE14.3 kmh NE 13.6 mph21.9 kmh 30.05 in1017.6 mb 0.00 in0.0 mm 0.00 in0.0 mm 0.00 in0.0 mm
12:00 PM 44.2°F6.8°C 31.7°F-0.2°C 61% 10.4 mph N16.7 kmh N 14.5 mph23.3 kmh 30.06 in1017.9 mb 0.00 in0.0 mm 0.00 in0.0 mm 0.00 in0.0 mm
12:10 PM 44.4°F6.9°C 31.4°F-0.3°C 60% 10.1 mph ENE16.3 kmh ENE 14.5 mph23.3 kmh 30.06 in1017.9 mb 0.00 in0.0 mm 0.00 in0.0 mm 0.00 in0.0 mm
12:20 PM 45.7°F7.6°C 30.5°F-0.8°C 55% 9.3 mph NE15.0 kmh NE 12.1 mph19.5 kmh 30.06 in1017.9 mb 0.00 in0.0 mm 0.00 in0.0 mm 0.00 in0.0 mm
12:30 PM 45.9°F7.7°C 29.7°F-1.3°C 53% 9.4 mph NE15.1 kmh NE 13.0 mph20.9 kmh 30.06 in1017.9 mb 0.00 in0.0 mm 0.00 in0.0 mm 0.00 in0.0 mm
12:40 PM 45.3°F7.4°C 31.8°F-0.1°C 59% 11.3 mph N18.2 kmh N 16.8 mph27.0 kmh 30.07 in1018.3 mb 0.00 in0.0 mm 0.00 in0.0 mm 0.00 in0.0 mm
12:51 PM 45.3°F7.4°C 31.8°F-0.1°C 59% 9.7 mph NNE15.6 kmh NNE 12.1 mph19.5 kmh 30.06 in1017.9 mb 0.00 in0.0 mm 0.00 in0.0 mm 0.00 in0.0 mm
01:00 PM 45.1°F7.3°C 30.8°F-0.7°C 57% 13.1 mph NNE21.1 kmh NNE 15.2 mph24.5 kmh 30.07 in1018.3 mb 0.00 in0.0 mm 0.00 in0.0 mm 0.00 in0.0 mm
01:10 PM 45.1°F7.3°C 32.1°F0.1°C 60% 9.4 mph N15.1 kmh N 13.6 mph21.9 kmh 30.07 in1018.3 mb 0.00 in0.0 mm 0.00 in0.0 mm 0.00 in0.0 mm
01:20 PM 45.5°F7.5°C 29.4°F-1.4°C 53% 12.0 mph ENE19.3 kmh ENE 13.6 mph21.9 kmh 30.07 in1018.3 mb 0.00 in0.0 mm 0.00 in0.0 mm 0.00 in0.0 mm
01:30 PM 46.2°F7.9°C 30.0°F-1.1°C 53% 10.8 mph NNE17.4 kmh NNE 15.9 mph25.6 kmh 30.07 in1018.3 mb 0.00 in0.0 mm 0.00 in0.0 mm 0.00 in0.0 mm
01:40 PM 46.4°F8.0°C 30.2°F-1.0°C 53% 10.6 mph NE17.1 kmh NE 14.5 mph23.3 kmh 30.07 in1018.3 mb 0.00 in0.0 mm 0.00 in0.0 mm 0.00 in0.0 mm
01:50 PM 47.1°F8.4°C 31.3°F-0.4°C 54% 10.2 mph N16.4 kmh N 15.2 mph24.5 kmh 30.08 in1018.6 mb 0.00 in0.0 mm 0.00 in0.0 mm 0.00 in0.0 mm
02:00 PM 47.7°F8.7°C 30.4°F-0.9°C 51% 10.5 mph NE16.9 kmh NE 15.2 mph24.5 kmh 30.07 in1018.3 mb 0.00 in0.0 mm 0.00 in0.0 mm 0.00 in0.0 mm
02:10 PM 46.8°F8.2°C 29.6°F-1.3°C 51% 10.3 mph NE16.6 kmh NE 12.1 mph19.5 kmh 30.07 in1018.3 mb 0.00 in0.0 mm 0.00 in0.0 mm 0.00 in0.0 mm
02:20 PM 46.0°F7.8°C 29.4°F-1.4°C 52% 9.5 mph N15.3 kmh N 11.4 mph18.3 kmh 30.07 in1018.3 mb 0.00 in0.0 mm 0.00 in0.0 mm 0.00 in0.0 mm
02:30 PM 46.0°F7.8°C 29.4°F-1.4°C 52% 10.9 mph NE17.5 kmh NE 13.6 mph21.9 kmh 30.07 in1018.3 mb 0.00 in0.0 mm 0.00 in0.0 mm 0.00 in0.0 mm
02:40 PM 45.5°F7.5°C 28.9°F-1.7°C 52% 10.5 mph ENE16.9 kmh ENE 13.0 mph20.9 kmh 30.08 in1018.6 mb 0.00 in0.0 mm 0.00 in0.0 mm 0.00 in0.0 mm
02:50 PM 46.0°F7.8°C 29.9°F-1.2°C 53% 8.6 mph ENE13.8 kmh ENE 10.7 mph17.2 kmh 30.07 in1018.3 mb 0.00 in0.0 mm 0.00 in0.0 mm 0.00 in0.0 mm
03:00 PM 47.5°F8.6°C 29.8°F-1.2°C 50% 10.6 mph NE17.1 kmh NE 12.1 mph19.5 kmh 30.08 in1018.6 mb 0.00 in0.0 mm 0.00 in0.0 mm 0.00 in0.0 mm
03:10 PM 47.7°F8.7°C 28.9°F-1.7°C 48% 9.0 mph NE14.5 kmh NE 12.1 mph19.5 kmh 30.07 in1018.3 mb 0.00 in0.0 mm 0.00 in0.0 mm 0.00 in0.0 mm
03:20 PM 46.2°F7.9°C 28.6°F-1.9°C 50% 10.3 mph N16.6 kmh N 14.5 mph23.3 kmh 30.07 in1018.3 mb 0.00 in0.0 mm 0.00 in0.0 mm 0.00 in0.0 mm
03:30 PM 47.1°F8.4°C 29.4°F-1.4°C 50% 10.4 mph N16.7 kmh N 13.0 mph20.9 kmh 30.08 in1018.6 mb 0.00 in0.0 mm 0.00 in0.0 mm 0.00 in0.0 mm
03:40 PM 46.9°F8.3°C 29.3°F-1.5°C 50% 8.8 mph NNE14.2 kmh NNE 15.2 mph24.5 kmh 30.07 in1018.3 mb 0.00 in0.0 mm 0.00 in0.0 mm 0.00 in0.0 mm
03:50 PM 47.5°F8.6°C 29.8°F-1.2°C 50% 8.8 mph ENE14.2 kmh ENE 15.2 mph24.5 kmh 30.08 in1018.6 mb 0.00 in0.0 mm 0.00 in0.0 mm 0.00 in0.0 mm
04:00 PM 47.8°F8.8°C 28.6°F-1.9°C 47% 8.1 mph NE13.0 kmh NE 11.4 mph18.3 kmh 30.08 in1018.6 mb 0.00 in0.0 mm 0.00 in0.0 mm 0.00 in0.0 mm
04:10 PM 48.4°F9.1°C 31.1°F-0.5°C 51% 9.2 mph NNE14.8 kmh NNE 13.6 mph21.9 kmh 30.09 in1019.0 mb 0.00 in0.0 mm 0.00 in0.0 mm 0.00 in0.0 mm
04:20 PM 46.4°F8.0°C 29.7°F-1.3°C 52% 9.9 mph NNW15.9 kmh NNW 15.2 mph24.5 kmh 30.09 in1019.0 mb 0.00 in0.0 mm 0.00 in0.0 mm 0.00 in0.0 mm
04:30 PM 46.2°F7.9°C 29.6°F-1.3°C 52% 8.6 mph N13.8 kmh N 12.1 mph19.5 kmh 30.09 in1019.0 mb 0.00 in0.0 mm 0.00 in0.0 mm 0.00 in0.0 mm
04:40 PM 47.7°F8.7°C 30.4°F-0.9°C 51% 9.3 mph NNE15.0 kmh NNE 13.0 mph20.9 kmh 30.09 in1019.0 mb 0.00 in0.0 mm 0.00 in0.0 mm 0.00 in0.0 mm
04:50 PM 48.2°F9.0°C 30.9°F-0.6°C 51% 8.8 mph N14.2 kmh N 11.4 mph18.3 kmh 30.08 in1018.6 mb 0.00 in0.0 mm 0.00 in0.0 mm 0.00 in0.0 mm
05:00 PM 47.7°F8.7°C 30.4°F-0.9°C 51% 8.6 mph NW13.8 kmh NW 13.0 mph20.9 kmh 30.09 in1019.0 mb 0.00 in0.0 mm 0.00 in0.0 mm 0.00 in0.0 mm
05:10 PM 46.4°F8.0°C 29.7°F-1.3°C 52% 8.3 mph NE13.4 kmh NE 10.7 mph17.2 kmh 30.09 in1019.0 mb 0.00 in0.0 mm 0.00 in0.0 mm 0.00 in0.0 mm
05:20 PM 45.9°F7.7°C 28.8°F-1.8°C 51% 8.7 mph NNE14.0 kmh NNE 13.0 mph20.9 kmh 30.10 in1019.3 mb 0.00 in0.0 mm 0.00 in0.0 mm 0.00 in0.0 mm
05:30 PM 45.5°F7.5°C 28.9°F-1.7°C 52% 7.1 mph N11.4 kmh N 13.0 mph20.9 kmh 30.10 in1019.3 mb 0.00 in0.0 mm 0.00 in0.0 mm 0.00 in0.0 mm
05:40 PM 45.0°F7.2°C 31.5°F-0.3°C 59% 6.9 mph NE11.1 kmh NE 9.8 mph15.8 kmh 30.10 in1019.3 mb 0.00 in0.0 mm 0.00 in0.0 mm 0.00 in0.0 mm
05:50 PM 44.8°F7.1°C 31.8°F-0.1°C 60% 7.4 mph N11.9 kmh N 9.8 mph15.8 kmh 30.11 in1019.6 mb 0.00 in0.0 mm 0.00 in0.0 mm 0.00 in0.0 mm
06:00 PM 44.2°F6.8°C 31.2°F-0.4°C 60% 5.1 mph ENE8.2 kmh ENE 8.3 mph13.4 kmh 30.11 in1019.6 mb 0.00 in0.0 mm 0.00 in0.0 mm 0.00 in0.0 mm
06:10 PM 43.9°F6.6°C 30.9°F-0.6°C 60% 5.0 mph NE8.0 kmh NE 7.6 mph12.2 kmh 30.11 in1019.6 mb 0.00 in0.0 mm 0.00 in0.0 mm 0.00 in0.0 mm
06:20 PM 43.3°F6.3°C 30.4°F-0.9°C 60% 5.9 mph N9.5 kmh N 7.6 mph12.2 kmh 30.11 in1019.6 mb 0.00 in0.0 mm 0.00 in0.0 mm 0.00 in0.0 mm
07:51 PM 43.5°F6.4°C 30.5°F-0.8°C 60% 4.6 mph N7.4 kmh N 5.4 mph8.7 kmh 29.78 in1008.5 mb 0.00 in0.0 mm 0.00 in0.0 mm 0.00 in0.0 mm
08:00 PM 39.7°F4.3°C 29.3°F-1.5°C 66% 0.4 mph NE0.6 kmh NE 1.6 mph2.6 kmh 29.80 in1009.1 mb 0.00 in0.0 mm 0.00 in0.0 mm 0.09 in2.3 mm
08:10 PM 39.7°F4.3°C 29.3°F-1.5°C 66% 0.9 mph NE1.4 kmh NE 2.2 mph3.5 kmh 29.80 in1009.1 mb 0.00 in0.0 mm 0.00 in0.0 mm 0.09 in2.3 mm
08:20 PM 39.4°F4.1°C 29.0°F-1.7°C 66% Calm Calm -- 29.81 in1009.5 mb 0.00 in0.0 mm 0.00 in0.0 mm 0.09 in2.3 mm
08:30 PM 39.0°F3.9°C 28.6°F-1.9°C 66% Calm Calm -- 29.81 in1009.5 mb 0.00 in0.0 mm 0.00 in0.0 mm 0.09 in2.3 mm
08:40 PM 38.8°F3.8°C 28.8°F-1.8°C 67% Calm Calm -- 29.81 in1009.5 mb 0.00 in0.0 mm 0.00 in0.0 mm 0.09 in2.3 mm
08:50 PM 38.5°F3.6°C 28.9°F-1.7°C 68% Calm Calm -- 29.81 in1009.5 mb 0.00 in0.0 mm 0.00 in0.0 mm 0.09 in2.3 mm
09:00 PM 38.3°F3.5°C 29.0°F-1.7°C 69% Calm Calm -- 29.80 in1009.1 mb 0.00 in0.0 mm 0.00 in0.0 mm 0.09 in2.3 mm
09:10 PM 38.1°F3.4°C 29.2°F-1.6°C 70% Calm Calm -- 29.81 in1009.5 mb 0.00 in0.0 mm 0.00 in0.0 mm 0.09 in2.3 mm
09:20 PM 37.6°F3.1°C 28.7°F-1.8°C 70% Calm Calm -- 29.81 in1009.5 mb 0.00 in0.0 mm 0.00 in0.0 mm 0.09 in2.3 mm
09:30 PM 37.6°F3.1°C 28.7°F-1.8°C 70% Calm Calm -- 29.80 in1009.1 mb 0.00 in0.0 mm 0.00 in0.0 mm 0.09 in2.3 mm
09:40 PM 37.8°F3.2°C 29.2°F-1.6°C 71% Calm Calm -- 29.81 in1009.5 mb 0.00 in0.0 mm 0.00 in0.0 mm 0.09 in2.3 mm
09:50 PM 37.9°F3.3°C 29.4°F-1.4°C 71% Calm Calm -- 29.82 in1009.8 mb 0.00 in0.0 mm 0.00 in0.0 mm 0.09 in2.3 mm
10:00 PM 37.8°F3.2°C 29.2°F-1.6°C 71% Calm Calm -- 29.81 in1009.5 mb 0.00 in0.0 mm 0.00 in0.0 mm 0.09 in2.3 mm
10:10 PM 36.9°F2.7°C 28.0°F-2.2°C 70% Calm Calm -- 29.81 in1009.5 mb 0.00 in0.0 mm 0.00 in0.0 mm 0.09 in2.3 mm
10:20 PM 36.5°F2.5°C 28.0°F-2.2°C 71% 0.2 mph S0.3 kmh S 1.6 mph2.6 kmh 29.82 in1009.8 mb 0.00 in0.0 mm 0.00 in0.0 mm 0.09 in2.3 mm
10:30 PM 36.1°F2.3°C 28.0°F-2.2°C 72% 0.1 mph S0.2 kmh S 1.6 mph2.6 kmh 29.82 in1009.8 mb 0.00 in0.0 mm 0.00 in0.0 mm 0.09 in2.3 mm
10:40 PM 35.8°F2.1°C 27.7°F-2.4°C 72% Calm Calm -- 29.81 in1009.5 mb 0.00 in0.0 mm 0.00 in0.0 mm 0.09 in2.3 mm
10:50 PM 35.4°F1.9°C 27.3°F-2.6°C 72% Calm Calm -- 29.82 in1009.8 mb 0.00 in0.0 mm 0.00 in0.0 mm 0.09 in2.3 mm
11:00 PM 35.2°F1.8°C 27.5°F-2.5°C 73% Calm Calm -- 29.82 in1009.8 mb 0.00 in0.0 mm 0.00 in0.0 mm 0.09 in2.3 mm
11:10 PM 35.4°F1.9°C 27.6°F-2.4°C 73% Calm Calm -- 29.82 in1009.8 mb 0.00 in0.0 mm 0.00 in0.0 mm 0.09 in2.3 mm
11:20 PM 34.9°F1.6°C 27.5°F-2.5°C 74% Calm Calm -- 29.82 in1009.8 mb 0.00 in0.0 mm 0.00 in0.0 mm 0.09 in2.3 mm
11:30 PM 34.3°F1.3°C 26.6°F-3.0°C 73% Calm Calm -- 29.82 in1009.8 mb 0.00 in0.0 mm 0.00 in0.0 mm 0.09 in2.3 mm
11:40 PM 34.0°F1.1°C 26.3°F-3.2°C 73% Calm Calm -- 29.82 in1009.8 mb 0.00 in0.0 mm 0.00 in0.0 mm 0.09 in2.3 mm
11:50 PM 33.8°F1.0°C 26.4°F-3.1°C 74% Calm Calm -- 29.82 in1009.8 mb 0.00 in0.0 mm 0.00 in0.0 mm 0.09 in2.3 mm